sensor_id;sensor_type;location;lat;lon;timestamp;P1;durP1;ratioP1;P2;durP2;ratioP2
29402;SDS011;16382;59.942;30.472;2022-10-20T00:01:34;0.65;;;0.65;;
29402;SDS011;16382;59.942;30.472;2022-10-20T00:04:01;0.68;;;0.63;;
29402;SDS011;16382;59.942;30.472;2022-10-20T00:06:29;1.20;;;0.75;;
29402;SDS011;16382;59.942;30.472;2022-10-20T00:08:59;1.15;;;1.05;;
29402;SDS011;16382;59.942;30.472;2022-10-20T00:11:27;1.77;;;0.98;;
29402;SDS011;16382;59.942;30.472;2022-10-20T00:13:57;1.20;;;1.00;;
29402;SDS011;16382;59.942;30.472;2022-10-20T00:16:26;1.95;;;1.35;;
29402;SDS011;16382;59.942;30.472;2022-10-20T00:18:54;1.50;;;0.93;;
29402;SDS011;16382;59.942;30.472;2022-10-20T00:21:23;2.55;;;0.90;;
29402;SDS011;16382;59.942;30.472;2022-10-20T00:23:52;1.08;;;0.98;;
29402;SDS011;16382;59.942;30.472;2022-10-20T00:26:20;1.25;;;1.15;;
29402;SDS011;16382;59.942;30.472;2022-10-20T00:28:48;1.55;;;1.00;;
29402;SDS011;16382;59.942;30.472;2022-10-20T00:31:19;1.30;;;1.20;;
29402;SDS011;16382;59.942;30.472;2022-10-20T00:33:47;2.67;;;1.30;;
29402;SDS011;16382;59.942;30.472;2022-10-20T00:36:15;1.52;;;1.30;;
29402;SDS011;16382;59.942;30.472;2022-10-20T00:38:44;3.05;;;1.40;;
29402;SDS011;16382;59.942;30.472;2022-10-20T00:41:11;1.48;;;1.25;;
29402;SDS011;16382;59.942;30.472;2022-10-20T00:43:41;1.15;;;0.95;;
29402;SDS011;16382;59.942;30.472;2022-10-20T00:46:10;1.77;;;1.15;;
29402;SDS011;16382;59.942;30.472;2022-10-20T00:48:40;1.20;;;1.10;;
29402;SDS011;16382;59.942;30.472;2022-10-20T00:51:11;1.10;;;0.85;;
29402;SDS011;16382;59.942;30.472;2022-10-20T00:53:40;0.75;;;0.75;;
29402;SDS011;16382;59.942;30.472;2022-10-20T00:56:09;0.85;;;0.80;;
29402;SDS011;16382;59.942;30.472;2022-10-20T00:58:36;1.77;;;0.95;;
29402;SDS011;16382;59.942;30.472;2022-10-20T01:01:04;5.38;;;2.08;;
29402;SDS011;16382;59.942;30.472;2022-10-20T01:03:33;18.52;;;2.33;;
29402;SDS011;16382;59.942;30.472;2022-10-20T01:06:06;10.63;;;5.35;;
29402;SDS011;16382;59.942;30.472;2022-10-20T01:08:33;12.43;;;2.55;;
29402;SDS011;16382;59.942;30.472;2022-10-20T01:11:04;10.50;;;2.53;;
29402;SDS011;16382;59.942;30.472;2022-10-20T01:13:44;16.15;;;3.00;;
29402;SDS011;16382;59.942;30.472;2022-10-20T01:16:20;10.85;;;2.33;;
29402;SDS011;16382;59.942;30.472;2022-10-20T01:18:55;8.40;;;2.53;;
29402;SDS011;16382;59.942;30.472;2022-10-20T01:24:29;13.63;;;3.60;;
29402;SDS011;16382;59.942;30.472;2022-10-20T01:27:16;7.45;;;3.50;;
29402;SDS011;16382;59.942;30.472;2022-10-20T01:29:55;27.27;;;5.18;;
29402;SDS011;16382;59.942;30.472;2022-10-20T01:32:31;24.20;;;4.78;;
29402;SDS011;16382;59.942;30.472;2022-10-20T01:35:08;14.98;;;4.85;;
29402;SDS011;16382;59.942;30.472;2022-10-20T01:37:43;20.02;;;4.85;;
29402;SDS011;16382;59.942;30.472;2022-10-20T01:40:19;19.38;;;4.18;;
29402;SDS011;16382;59.942;30.472;2022-10-20T01:42:53;33.28;;;5.30;;
29402;SDS011;16382;59.942;30.472;2022-10-20T01:45:24;26.17;;;5.77;;
29402;SDS011;16382;59.942;30.472;2022-10-20T01:47:56;30.70;;;6.68;;
29402;SDS011;16382;59.942;30.472;2022-10-20T01:50:25;19.92;;;5.95;;
29402;SDS011;16382;59.942;30.472;2022-10-20T01:52:55;18.58;;;6.60;;
29402;SDS011;16382;59.942;30.472;2022-10-20T01:55:23;19.30;;;5.50;;
29402;SDS011;16382;59.942;30.472;2022-10-20T01:58:00;15.93;;;4.70;;
29402;SDS011;16382;59.942;30.472;2022-10-20T02:00:41;13.82;;;4.88;;
29402;SDS011;16382;59.942;30.472;2022-10-20T02:03:13;9.07;;;4.70;;
29402;SDS011;16382;59.942;30.472;2022-10-20T02:05:59;9.05;;;4.90;;
29402;SDS011;16382;59.942;30.472;2022-10-20T02:08:36;11.48;;;5.35;;
29402;SDS011;16382;59.942;30.472;2022-10-20T02:11:09;12.57;;;4.53;;
29402;SDS011;16382;59.942;30.472;2022-10-20T02:13:44;7.68;;;4.75;;
29402;SDS011;16382;59.942;30.472;2022-10-20T02:16:13;7.05;;;4.45;;
29402;SDS011;16382;59.942;30.472;2022-10-20T02:18:44;7.88;;;3.88;;
29402;SDS011;16382;59.942;30.472;2022-10-20T02:21:12;8.63;;;4.32;;
29402;SDS011;16382;59.942;30.472;2022-10-20T02:23:41;6.72;;;4.35;;
29402;SDS011;16382;59.942;30.472;2022-10-20T02:26:12;7.65;;;3.90;;
29402;SDS011;16382;59.942;30.472;2022-10-20T02:28:42;5.63;;;3.90;;
29402;SDS011;16382;59.942;30.472;2022-10-20T02:31:13;4.30;;;3.35;;
29402;SDS011;16382;59.942;30.472;2022-10-20T02:33:42;4.68;;;3.30;;
29402;SDS011;16382;59.942;30.472;2022-10-20T02:36:12;5.13;;;3.80;;
29402;SDS011;16382;59.942;30.472;2022-10-20T02:38:41;4.07;;;3.40;;
29402;SDS011;16382;59.942;30.472;2022-10-20T02:41:09;5.07;;;3.88;;
29402;SDS011;16382;59.942;30.472;2022-10-20T02:43:37;6.93;;;4.65;;
29402;SDS011;16382;59.942;30.472;2022-10-20T02:46:06;6.57;;;3.95;;
29402;SDS011;16382;59.942;30.472;2022-10-20T02:48:33;6.93;;;3.80;;
29402;SDS011;16382;59.942;30.472;2022-10-20T02:51:02;5.10;;;3.95;;
29402;SDS011;16382;59.942;30.472;2022-10-20T02:53:30;6.95;;;4.03;;
29402;SDS011;16382;59.942;30.472;2022-10-20T02:55:58;6.55;;;4.70;;
29402;SDS011;16382;59.942;30.472;2022-10-20T02:58:26;12.13;;;4.88;;
29402;SDS011;16382;59.942;30.472;2022-10-20T03:00:53;9.60;;;4.85;;
29402;SDS011;16382;59.942;30.472;2022-10-20T03:03:22;8.02;;;5.35;;
29402;SDS011;16382;59.942;30.472;2022-10-20T03:05:49;9.65;;;5.78;;
29402;SDS011;16382;59.942;30.472;2022-10-20T03:08:16;7.53;;;5.40;;
29402;SDS011;16382;59.942;30.472;2022-10-20T03:10:44;11.23;;;5.53;;
29402;SDS011;16382;59.942;30.472;2022-10-20T03:13:11;9.88;;;5.82;;
29402;SDS011;16382;59.942;30.472;2022-10-20T03:15:40;9.13;;;5.88;;
29402;SDS011;16382;59.942;30.472;2022-10-20T03:18:07;9.52;;;5.90;;
29402;SDS011;16382;59.942;30.472;2022-10-20T03:20:36;9.88;;;6.32;;
29402;SDS011;16382;59.942;30.472;2022-10-20T03:23:03;11.23;;;6.78;;
29402;SDS011;16382;59.942;30.472;2022-10-20T03:25:30;12.38;;;6.90;;
29402;SDS011;16382;59.942;30.472;2022-10-20T03:27:58;13.65;;;7.00;;
29402;SDS011;16382;59.942;30.472;2022-10-20T03:30:25;12.13;;;7.85;;
29402;SDS011;16382;59.942;30.472;2022-10-20T03:32:52;16.75;;;8.20;;
29402;SDS011;16382;59.942;30.472;2022-10-20T03:35:21;12.52;;;8.00;;
29402;SDS011;16382;59.942;30.472;2022-10-20T03:37:50;10.32;;;6.82;;
29402;SDS011;16382;59.942;30.472;2022-10-20T03:40:17;8.75;;;6.18;;
29402;SDS011;16382;59.942;30.472;2022-10-20T03:42:45;11.00;;;7.60;;
29402;SDS011;16382;59.942;30.472;2022-10-20T03:45:12;17.50;;;10.52;;
29402;SDS011;16382;59.942;30.472;2022-10-20T03:47:39;10.15;;;6.43;;
29402;SDS011;16382;59.942;30.472;2022-10-20T03:50:07;7.13;;;4.93;;
29402;SDS011;16382;59.942;30.472;2022-10-20T03:52:35;16.85;;;7.78;;
29402;SDS011;16382;59.942;30.472;2022-10-20T03:55:04;18.50;;;12.40;;
29402;SDS011;16382;59.942;30.472;2022-10-20T03:57:32;32.80;;;13.70;;
29402;SDS011;16382;59.942;30.472;2022-10-20T03:59:59;11.38;;;6.90;;
29402;SDS011;16382;59.942;30.472;2022-10-20T04:02:37;7.35;;;4.60;;
29402;SDS011;16382;59.942;30.472;2022-10-20T04:05:07;20.88;;;6.55;;
29402;SDS011;16382;59.942;30.472;2022-10-20T04:07:36;13.25;;;6.63;;
29402;SDS011;16382;59.942;30.472;2022-10-20T04:10:05;18.30;;;5.95;;
29402;SDS011;16382;59.942;30.472;2022-10-20T04:12:35;7.05;;;3.65;;
29402;SDS011;16382;59.942;30.472;2022-10-20T04:15:03;6.10;;;4.00;;
29402;SDS011;16382;59.942;30.472;2022-10-20T04:17:31;7.05;;;4.05;;
29402;SDS011;16382;59.942;30.472;2022-10-20T04:20:01;7.38;;;4.18;;
29402;SDS011;16382;59.942;30.472;2022-10-20T04:22:32;9.00;;;4.43;;
29402;SDS011;16382;59.942;30.472;2022-10-20T04:25:00;8.95;;;4.80;;
29402;SDS011;16382;59.942;30.472;2022-10-20T04:27:30;7.07;;;4.03;;
29402;SDS011;16382;59.942;30.472;2022-10-20T04:29:57;7.68;;;4.50;;
29402;SDS011;16382;59.942;30.472;2022-10-20T04:32:25;9.00;;;4.45;;
29402;SDS011;16382;59.942;30.472;2022-10-20T04:34:53;8.18;;;4.85;;
29402;SDS011;16382;59.942;30.472;2022-10-20T04:37:22;11.95;;;4.70;;
29402;SDS011;16382;59.942;30.472;2022-10-20T04:39:53;7.97;;;4.15;;
29402;SDS011;16382;59.942;30.472;2022-10-20T04:42:30;5.82;;;3.83;;
29402;SDS011;16382;59.942;30.472;2022-10-20T04:44:57;9.15;;;4.25;;
29402;SDS011;16382;59.942;30.472;2022-10-20T04:47:25;8.32;;;4.55;;
29402;SDS011;16382;59.942;30.472;2022-10-20T04:49:56;6.05;;;4.20;;
29402;SDS011;16382;59.942;30.472;2022-10-20T04:52:23;9.35;;;5.35;;
29402;SDS011;16382;59.942;30.472;2022-10-20T04:54:51;10.35;;;4.55;;
29402;SDS011;16382;59.942;30.472;2022-10-20T04:57:18;6.28;;;4.30;;
29402;SDS011;16382;59.942;30.472;2022-10-20T04:59:47;7.75;;;3.90;;
29402;SDS011;16382;59.942;30.472;2022-10-20T05:02:14;11.07;;;4.70;;
29402;SDS011;16382;59.942;30.472;2022-10-20T05:04:42;10.90;;;4.65;;
29402;SDS011;16382;59.942;30.472;2022-10-20T05:07:09;9.20;;;4.28;;
29402;SDS011;16382;59.942;30.472;2022-10-20T05:09:39;7.50;;;4.28;;
29402;SDS011;16382;59.942;30.472;2022-10-20T05:12:06;5.50;;;3.78;;
29402;SDS011;16382;59.942;30.472;2022-10-20T05:14:33;11.30;;;3.95;;
29402;SDS011;16382;59.942;30.472;2022-10-20T05:17:02;10.93;;;4.18;;
29402;SDS011;16382;59.942;30.472;2022-10-20T05:19:33;8.57;;;5.40;;
29402;SDS011;16382;59.942;30.472;2022-10-20T05:22:00;10.48;;;3.90;;
29402;SDS011;16382;59.942;30.472;2022-10-20T05:24:28;9.65;;;3.70;;
29402;SDS011;16382;59.942;30.472;2022-10-20T05:26:57;13.35;;;3.63;;
29402;SDS011;16382;59.942;30.472;2022-10-20T05:29:24;14.13;;;6.68;;
29402;SDS011;16382;59.942;30.472;2022-10-20T05:31:52;7.65;;;4.30;;
29402;SDS011;16382;59.942;30.472;2022-10-20T05:34:21;15.88;;;6.20;;
29402;SDS011;16382;59.942;30.472;2022-10-20T05:36:48;8.32;;;3.88;;
29402;SDS011;16382;59.942;30.472;2022-10-20T05:39:18;11.90;;;4.15;;
29402;SDS011;16382;59.942;30.472;2022-10-20T05:41:45;12.45;;;5.03;;
29402;SDS011;16382;59.942;30.472;2022-10-20T05:44:12;13.55;;;6.15;;
29402;SDS011;16382;59.942;30.472;2022-10-20T05:46:39;22.33;;;5.72;;
29402;SDS011;16382;59.942;30.472;2022-10-20T05:49:09;13.57;;;6.40;;
29402;SDS011;16382;59.942;30.472;2022-10-20T05:51:41;21.63;;;6.78;;
29402;SDS011;16382;59.942;30.472;2022-10-20T05:54:09;25.42;;;8.15;;
29402;SDS011;16382;59.942;30.472;2022-10-20T05:56:38;38.10;;;17.67;;
29402;SDS011;16382;59.942;30.472;2022-10-20T05:59:06;26.83;;;10.30;;
29402;SDS011;16382;59.942;30.472;2022-10-20T06:01:33;11.65;;;6.03;;
29402;SDS011;16382;59.942;30.472;2022-10-20T06:04:12;3.97;;;3.55;;
29402;SDS011;16382;59.942;30.472;2022-10-20T06:06:43;4.72;;;2.67;;
29402;SDS011;16382;59.942;30.472;2022-10-20T06:09:13;4.38;;;2.60;;
29402;SDS011;16382;59.942;30.472;2022-10-20T06:11:41;4.80;;;2.88;;
29402;SDS011;16382;59.942;30.472;2022-10-20T06:14:08;4.93;;;3.38;;
29402;SDS011;16382;59.942;30.472;2022-10-20T06:16:36;6.22;;;2.65;;
29402;SDS011;16382;59.942;30.472;2022-10-20T06:19:03;4.80;;;3.05;;
29402;SDS011;16382;59.942;30.472;2022-10-20T06:21:32;5.30;;;3.10;;
29402;SDS011;16382;59.942;30.472;2022-10-20T06:24:03;4.68;;;3.53;;
29402;SDS011;16382;59.942;30.472;2022-10-20T06:26:32;9.32;;;3.85;;
29402;SDS011;16382;59.942;30.472;2022-10-20T06:29:01;13.93;;;4.25;;
29402;SDS011;16382;59.942;30.472;2022-10-20T06:31:30;5.13;;;3.05;;
29402;SDS011;16382;59.942;30.472;2022-10-20T06:34:03;6.45;;;3.17;;
29402;SDS011;16382;59.942;30.472;2022-10-20T06:36:33;5.38;;;2.95;;
29402;SDS011;16382;59.942;30.472;2022-10-20T06:39:03;6.40;;;3.30;;
29402;SDS011;16382;59.942;30.472;2022-10-20T06:41:32;3.85;;;2.92;;
29402;SDS011;16382;59.942;30.472;2022-10-20T06:44:00;5.18;;;2.83;;
29402;SDS011;16382;59.942;30.472;2022-10-20T06:46:28;4.47;;;4.00;;
29402;SDS011;16382;59.942;30.472;2022-10-20T06:48:58;6.63;;;4.00;;
29402;SDS011;16382;59.942;30.472;2022-10-20T06:51:26;7.15;;;4.00;;
29402;SDS011;16382;59.942;30.472;2022-10-20T06:53:53;5.93;;;4.03;;
29402;SDS011;16382;59.942;30.472;2022-10-20T06:56:23;9.77;;;5.13;;
29402;SDS011;16382;59.942;30.472;2022-10-20T06:58:52;9.45;;;4.40;;
29402;SDS011;16382;59.942;30.472;2022-10-20T07:01:21;6.88;;;4.93;;
29402;SDS011;16382;59.942;30.472;2022-10-20T07:03:49;7.40;;;5.05;;
29402;SDS011;16382;59.942;30.472;2022-10-20T07:06:19;6.63;;;4.88;;
29402;SDS011;16382;59.942;30.472;2022-10-20T07:08:48;8.73;;;5.07;;
29402;SDS011;16382;59.942;30.472;2022-10-20T07:11:18;8.10;;;5.20;;
29402;SDS011;16382;59.942;30.472;2022-10-20T07:13:48;9.95;;;5.75;;
29402;SDS011;16382;59.942;30.472;2022-10-20T07:16:16;6.20;;;5.07;;
29402;SDS011;16382;59.942;30.472;2022-10-20T07:18:44;6.78;;;5.10;;
29402;SDS011;16382;59.942;30.472;2022-10-20T07:21:15;8.57;;;5.20;;
29402;SDS011;16382;59.942;30.472;2022-10-20T07:23:43;7.75;;;5.35;;
29402;SDS011;16382;59.942;30.472;2022-10-20T07:26:12;7.72;;;5.18;;
29402;SDS011;16382;59.942;30.472;2022-10-20T07:28:44;6.57;;;5.00;;
29402;SDS011;16382;59.942;30.472;2022-10-20T07:31:15;7.35;;;5.05;;
29402;SDS011;16382;59.942;30.472;2022-10-20T07:33:43;7.13;;;4.55;;
29402;SDS011;16382;59.942;30.472;2022-10-20T07:36:13;9.35;;;4.85;;
29402;SDS011;16382;59.942;30.472;2022-10-20T07:38:41;7.65;;;5.18;;
29402;SDS011;16382;59.942;30.472;2022-10-20T07:41:09;6.30;;;4.85;;
29402;SDS011;16382;59.942;30.472;2022-10-20T07:43:37;9.75;;;5.50;;
29402;SDS011;16382;59.942;30.472;2022-10-20T07:46:05;7.93;;;5.10;;
29402;SDS011;16382;59.942;30.472;2022-10-20T07:48:34;7.25;;;4.75;;
29402;SDS011;16382;59.942;30.472;2022-10-20T07:51:15;5.75;;;4.65;;
29402;SDS011;16382;59.942;30.472;2022-10-20T07:53:50;7.88;;;4.80;;
29402;SDS011;16382;59.942;30.472;2022-10-20T07:56:18;5.68;;;4.50;;
29402;SDS011;16382;59.942;30.472;2022-10-20T07:58:46;7.65;;;4.90;;
29402;SDS011;16382;59.942;30.472;2022-10-20T08:01:14;9.63;;;5.57;;
29402;SDS011;16382;59.942;30.472;2022-10-20T08:03:43;7.68;;;4.93;;
29402;SDS011;16382;59.942;30.472;2022-10-20T08:06:10;6.43;;;4.57;;
29402;SDS011;16382;59.942;30.472;2022-10-20T08:08:37;5.85;;;4.47;;
29402;SDS011;16382;59.942;30.472;2022-10-20T08:11:05;9.60;;;4.80;;
29402;SDS011;16382;59.942;30.472;2022-10-20T08:13:32;16.20;;;8.07;;
29402;SDS011;16382;59.942;30.472;2022-10-20T08:16:00;5.80;;;5.30;;
29402;SDS011;16382;59.942;30.472;2022-10-20T08:18:27;7.20;;;4.95;;
29402;SDS011;16382;59.942;30.472;2022-10-20T08:21:06;9.15;;;6.40;;
29402;SDS011;16382;59.942;30.472;2022-10-20T08:23:36;8.50;;;5.28;;
29402;SDS011;16382;59.942;30.472;2022-10-20T08:26:05;7.80;;;5.07;;
29402;SDS011;16382;59.942;30.472;2022-10-20T08:28:33;7.05;;;4.38;;
29402;SDS011;16382;59.942;30.472;2022-10-20T08:31:01;4.65;;;3.70;;
29402;SDS011;16382;59.942;30.472;2022-10-20T08:33:28;7.88;;;5.30;;
29402;SDS011;16382;59.942;30.472;2022-10-20T08:35:59;6.28;;;5.15;;
29402;SDS011;16382;59.942;30.472;2022-10-20T08:38:29;6.35;;;5.10;;
29402;SDS011;16382;59.942;30.472;2022-10-20T08:40:56;6.68;;;5.13;;
29402;SDS011;16382;59.942;30.472;2022-10-20T08:43:25;5.22;;;4.72;;
29402;SDS011;16382;59.942;30.472;2022-10-20T08:45:55;8.55;;;5.10;;
29402;SDS011;16382;59.942;30.472;2022-10-20T08:48:23;5.13;;;4.05;;
29402;SDS011;16382;59.942;30.472;2022-10-20T08:50:53;6.65;;;4.65;;
29402;SDS011;16382;59.942;30.472;2022-10-20T08:53:23;7.53;;;4.85;;
29402;SDS011;16382;59.942;30.472;2022-10-20T08:55:54;7.43;;;4.38;;
29402;SDS011;16382;59.942;30.472;2022-10-20T08:58:22;6.47;;;4.18;;
29402;SDS011;16382;59.942;30.472;2022-10-20T09:00:53;9.10;;;4.72;;
29402;SDS011;16382;59.942;30.472;2022-10-20T09:03:23;6.33;;;4.57;;
29402;SDS011;16382;59.942;30.472;2022-10-20T09:05:54;8.88;;;5.70;;
29402;SDS011;16382;59.942;30.472;2022-10-20T09:08:27;5.88;;;4.80;;
29402;SDS011;16382;59.942;30.472;2022-10-20T09:10:58;10.18;;;4.53;;
29402;SDS011;16382;59.942;30.472;2022-10-20T09:13:27;6.28;;;4.78;;
29402;SDS011;16382;59.942;30.472;2022-10-20T09:15:58;9.55;;;5.75;;
29402;SDS011;16382;59.942;30.472;2022-10-20T09:18:28;5.72;;;4.25;;
29402;SDS011;16382;59.942;30.472;2022-10-20T09:20:56;8.48;;;5.18;;
29402;SDS011;16382;59.942;30.472;2022-10-20T09:23:28;5.47;;;4.43;;
29402;SDS011;16382;59.942;30.472;2022-10-20T09:26:01;5.25;;;4.18;;
29402;SDS011;16382;59.942;30.472;2022-10-20T09:28:28;7.43;;;4.72;;
29402;SDS011;16382;59.942;30.472;2022-10-20T09:30:56;7.95;;;4.38;;
29402;SDS011;16382;59.942;30.472;2022-10-20T09:33:27;6.13;;;4.60;;
29402;SDS011;16382;59.942;30.472;2022-10-20T09:36:01;10.38;;;7.65;;
29402;SDS011;16382;59.942;30.472;2022-10-20T09:38:31;13.35;;;6.30;;
29402;SDS011;16382;59.942;30.472;2022-10-20T09:41:05;5.20;;;3.88;;
29402;SDS011;16382;59.942;30.472;2022-10-20T09:43:37;7.70;;;5.55;;
29402;SDS011;16382;59.942;30.472;2022-10-20T09:46:16;7.07;;;3.95;;
29402;SDS011;16382;59.942;30.472;2022-10-20T09:48:46;8.68;;;4.25;;
29402;SDS011;16382;59.942;30.472;2022-10-20T09:51:15;9.80;;;4.05;;
29402;SDS011;16382;59.942;30.472;2022-10-20T09:53:48;8.77;;;3.45;;
29402;SDS011;16382;59.942;30.472;2022-10-20T09:56:26;5.20;;;3.63;;
29402;SDS011;16382;59.942;30.472;2022-10-20T09:58:56;6.05;;;3.58;;
29402;SDS011;16382;59.942;30.472;2022-10-20T10:01:24;7.57;;;3.50;;
29402;SDS011;16382;59.942;30.472;2022-10-20T10:03:52;6.78;;;3.47;;
29402;SDS011;16382;59.942;30.472;2022-10-20T10:06:28;4.72;;;3.05;;
29402;SDS011;16382;59.942;30.472;2022-10-20T10:12:04;4.15;;;2.67;;
29402;SDS011;16382;59.942;30.472;2022-10-20T10:14:47;5.75;;;2.38;;
29402;SDS011;16382;59.942;30.472;2022-10-20T10:17:27;3.58;;;2.72;;
29402;SDS011;16382;59.942;30.472;2022-10-20T10:19:55;4.90;;;2.03;;
29402;SDS011;16382;59.942;30.472;2022-10-20T10:22:23;4.85;;;1.67;;
29402;SDS011;16382;59.942;30.472;2022-10-20T10:24:51;4.28;;;1.92;;
29402;SDS011;16382;59.942;30.472;2022-10-20T10:27:30;6.22;;;1.70;;
29402;SDS011;16382;59.942;30.472;2022-10-20T10:30:24;6.03;;;2.42;;
29402;SDS011;16382;59.942;30.472;2022-10-20T10:32:59;6.65;;;3.20;;
29402;SDS011;16382;59.942;30.472;2022-10-20T10:35:28;4.70;;;2.80;;
29402;SDS011;16382;59.942;30.472;2022-10-20T10:37:59;4.07;;;2.38;;
29402;SDS011;16382;59.942;30.472;2022-10-20T10:40:29;6.43;;;2.40;;
29402;SDS011;16382;59.942;30.472;2022-10-20T10:43:13;4.53;;;2.70;;
29402;SDS011;16382;59.942;30.472;2022-10-20T10:45:55;7.57;;;1.95;;
29402;SDS011;16382;59.942;30.472;2022-10-20T10:48:34;10.48;;;8.02;;
29402;SDS011;16382;59.942;30.472;2022-10-20T10:51:15;4.30;;;2.53;;
29402;SDS011;16382;59.942;30.472;2022-10-20T10:53:50;5.88;;;2.60;;
29402;SDS011;16382;59.942;30.472;2022-10-20T10:56:28;6.78;;;3.00;;
29402;SDS011;16382;59.942;30.472;2022-10-20T10:59:04;3.90;;;3.25;;
29402;SDS011;16382;59.942;30.472;2022-10-20T11:04:47;6.85;;;4.15;;
29402;SDS011;16382;59.942;30.472;2022-10-20T11:07:47;7.05;;;2.20;;
29402;SDS011;16382;59.942;30.472;2022-10-20T11:10:23;4.50;;;2.67;;
29402;SDS011;16382;59.942;30.472;2022-10-20T11:13:01;4.30;;;2.67;;
29402;SDS011;16382;59.942;30.472;2022-10-20T11:15:53;3.80;;;2.20;;
29402;SDS011;16382;59.942;30.472;2022-10-20T11:18:36;10.95;;;8.25;;
29402;SDS011;16382;59.942;30.472;2022-10-20T11:21:20;5.15;;;3.03;;
29402;SDS011;16382;59.942;30.472;2022-10-20T11:24:00;3.78;;;2.50;;
29402;SDS011;16382;59.942;30.472;2022-10-20T11:26:36;6.10;;;2.47;;
29402;SDS011;16382;59.942;30.472;2022-10-20T11:31:44;3.30;;;2.92;;
29402;SDS011;16382;59.942;30.472;2022-10-20T11:34:22;5.97;;;2.28;;
29402;SDS011;16382;59.942;30.472;2022-10-20T11:36:56;8.07;;;3.05;;
29402;SDS011;16382;59.942;30.472;2022-10-20T11:39:34;4.75;;;3.40;;
29402;SDS011;16382;59.942;30.472;2022-10-20T11:42:11;6.03;;;3.50;;
29402;SDS011;16382;59.942;30.472;2022-10-20T11:44:50;5.63;;;3.15;;
29402;SDS011;16382;59.942;30.472;2022-10-20T11:47:21;5.07;;;3.20;;
29402;SDS011;16382;59.942;30.472;2022-10-20T11:49:54;5.00;;;3.50;;
29402;SDS011;16382;59.942;30.472;2022-10-20T11:52:39;4.85;;;3.75;;
29402;SDS011;16382;59.942;30.472;2022-10-20T11:55:22;4.18;;;2.78;;
29402;SDS011;16382;59.942;30.472;2022-10-20T11:58:18;3.15;;;2.30;;
29402;SDS011;16382;59.942;30.472;2022-10-20T12:00:59;5.78;;;3.53;;
29402;SDS011;16382;59.942;30.472;2022-10-20T12:03:55;4.68;;;3.95;;
29402;SDS011;16382;59.942;30.472;2022-10-20T12:13:06;3.55;;;2.45;;
29402;SDS011;16382;59.942;30.472;2022-10-20T12:15:44;5.47;;;2.83;;
29402;SDS011;16382;59.942;30.472;2022-10-20T12:21:16;4.47;;;2.90;;
29402;SDS011;16382;59.942;30.472;2022-10-20T12:35:26;6.03;;;3.58;;
29402;SDS011;16382;59.942;30.472;2022-10-20T12:38:14;4.70;;;3.53;;
29402;SDS011;16382;59.942;30.472;2022-10-20T12:40:44;3.92;;;3.58;;
29402;SDS011;16382;59.942;30.472;2022-10-20T12:43:22;4.75;;;4.15;;
29402;SDS011;16382;59.942;30.472;2022-10-20T12:45:51;3.75;;;3.45;;
29402;SDS011;16382;59.942;30.472;2022-10-20T12:48:23;4.50;;;3.90;;
29402;SDS011;16382;59.942;30.472;2022-10-20T12:50:51;5.53;;;3.85;;
29402;SDS011;16382;59.942;30.472;2022-10-20T12:53:21;7.43;;;4.07;;
29402;SDS011;16382;59.942;30.472;2022-10-20T12:55:55;8.30;;;4.32;;
29402;SDS011;16382;59.942;30.472;2022-10-20T12:58:28;6.05;;;4.55;;
29402;SDS011;16382;59.942;30.472;2022-10-20T13:01:05;5.20;;;4.53;;
29402;SDS011;16382;59.942;30.472;2022-10-20T13:03:36;6.50;;;4.22;;
29402;SDS011;16382;59.942;30.472;2022-10-20T13:09:23;5.25;;;4.63;;
29402;SDS011;16382;59.942;30.472;2022-10-20T13:11:57;5.75;;;4.15;;
29402;SDS011;16382;59.942;30.472;2022-10-20T13:17:33;5.82;;;4.40;;
29402;SDS011;16382;59.942;30.472;2022-10-20T13:20:18;6.55;;;5.72;;
29402;SDS011;16382;59.942;30.472;2022-10-20T13:22:51;8.45;;;5.85;;
29402;SDS011;16382;59.942;30.472;2022-10-20T13:28:15;10.75;;;7.07;;
29402;SDS011;16382;59.942;30.472;2022-10-20T13:30:55;9.48;;;8.48;;
29402;SDS011;16382;59.942;30.472;2022-10-20T13:33:32;13.68;;;10.80;;
29402;SDS011;16382;59.942;30.472;2022-10-20T13:36:06;13.85;;;11.90;;
29402;SDS011;16382;59.942;30.472;2022-10-20T13:38:39;11.07;;;8.18;;
29402;SDS011;16382;59.942;30.472;2022-10-20T13:41:16;8.63;;;6.43;;
29402;SDS011;16382;59.942;30.472;2022-10-20T13:43:51;10.10;;;7.28;;
29402;SDS011;16382;59.942;30.472;2022-10-20T13:46:38;7.45;;;6.22;;
29402;SDS011;16382;59.942;30.472;2022-10-20T13:49:25;6.30;;;5.78;;
29402;SDS011;16382;59.942;30.472;2022-10-20T13:52:08;7.25;;;6.55;;
29402;SDS011;16382;59.942;30.472;2022-10-20T13:54:40;11.35;;;7.65;;
29402;SDS011;16382;59.942;30.472;2022-10-20T13:57:20;11.55;;;6.63;;
29402;SDS011;16382;59.942;30.472;2022-10-20T13:59:54;9.25;;;7.05;;
29402;SDS011;16382;59.942;30.472;2022-10-20T14:02:23;8.30;;;6.95;;
29402;SDS011;16382;59.942;30.472;2022-10-20T14:05:03;9.13;;;7.30;;
29402;SDS011;16382;59.942;30.472;2022-10-20T14:07:36;11.23;;;7.65;;
29402;SDS011;16382;59.942;30.472;2022-10-20T14:10:05;11.45;;;7.20;;
29402;SDS011;16382;59.942;30.472;2022-10-20T14:12:46;13.73;;;7.80;;
29402;SDS011;16382;59.942;30.472;2022-10-20T14:15:14;10.90;;;7.72;;
29402;SDS011;16382;59.942;30.472;2022-10-20T14:17:53;13.50;;;9.70;;
29402;SDS011;16382;59.942;30.472;2022-10-20T14:20:22;11.43;;;10.10;;
29402;SDS011;16382;59.942;30.472;2022-10-20T14:22:50;14.70;;;10.43;;
29402;SDS011;16382;59.942;30.472;2022-10-20T14:25:19;21.90;;;9.77;;
29402;SDS011;16382;59.942;30.472;2022-10-20T14:27:48;11.65;;;8.75;;
29402;SDS011;16382;59.942;30.472;2022-10-20T14:30:17;10.98;;;8.07;;
29402;SDS011;16382;59.942;30.472;2022-10-20T14:32:46;14.02;;;7.93;;
29402;SDS011;16382;59.942;30.472;2022-10-20T14:35:26;7.88;;;6.63;;
29402;SDS011;16382;59.942;30.472;2022-10-20T14:37:57;9.27;;;7.07;;
29402;SDS011;16382;59.942;30.472;2022-10-20T14:40:28;13.73;;;7.65;;
29402;SDS011;16382;59.942;30.472;2022-10-20T14:43:02;12.15;;;8.35;;
29402;SDS011;16382;59.942;30.472;2022-10-20T14:45:32;12.27;;;8.00;;
29402;SDS011;16382;59.942;30.472;2022-10-20T14:48:00;12.15;;;8.13;;
29402;SDS011;16382;59.942;30.472;2022-10-20T14:50:32;11.80;;;7.90;;
29402;SDS011;16382;59.942;30.472;2022-10-20T14:55:59;11.43;;;7.45;;
29402;SDS011;16382;59.942;30.472;2022-10-20T14:58:33;8.32;;;7.40;;
29402;SDS011;16382;59.942;30.472;2022-10-20T15:01:15;11.02;;;7.40;;
29402;SDS011;16382;59.942;30.472;2022-10-20T15:04:01;10.30;;;6.45;;
29402;SDS011;16382;59.942;30.472;2022-10-20T15:06:33;9.30;;;6.78;;
29402;SDS011;16382;59.942;30.472;2022-10-20T15:09:00;11.13;;;7.00;;
29402;SDS011;16382;59.942;30.472;2022-10-20T15:11:28;8.85;;;6.28;;
29402;SDS011;16382;59.942;30.472;2022-10-20T15:13:58;8.40;;;5.97;;
29402;SDS011;16382;59.942;30.472;2022-10-20T15:16:33;9.02;;;6.78;;
29402;SDS011;16382;59.942;30.472;2022-10-20T15:19:09;7.07;;;5.57;;
29402;SDS011;16382;59.942;30.472;2022-10-20T15:21:38;8.85;;;5.00;;
29402;SDS011;16382;59.942;30.472;2022-10-20T15:24:05;6.72;;;5.13;;
29402;SDS011;16382;59.942;30.472;2022-10-20T15:26:33;9.88;;;4.55;;
29402;SDS011;16382;59.942;30.472;2022-10-20T15:29:01;5.75;;;3.97;;
29402;SDS011;16382;59.942;30.472;2022-10-20T15:31:28;4.88;;;3.70;;
29402;SDS011;16382;59.942;30.472;2022-10-20T15:33:57;4.40;;;4.00;;
29402;SDS011;16382;59.942;30.472;2022-10-20T15:36:25;5.32;;;4.53;;
29402;SDS011;16382;59.942;30.472;2022-10-20T15:38:56;8.40;;;4.13;;
29402;SDS011;16382;59.942;30.472;2022-10-20T15:41:23;7.13;;;4.28;;